createdAt,value
2017-10-24T00:01:47.437Z,10.05
2017-10-24T00:04:15.898Z,10.09
2017-10-24T00:06:44.568Z,10.12
2017-10-24T00:09:13.254Z,10.05
2017-10-24T00:11:41.948Z,10.07
2017-10-24T00:14:10.594Z,10.14
2017-10-24T00:16:39.289Z,10.11
2017-10-24T00:19:07.907Z,10.12
2017-10-24T00:21:36.372Z,10.09
2017-10-24T00:24:04.934Z,10.15
2017-10-24T00:26:33.771Z,10.15
2017-10-24T00:29:02.903Z,10.19
2017-10-24T00:31:31.506Z,10.25
2017-10-24T00:34:00.131Z,10.24
2017-10-24T00:36:28.817Z,10.17
2017-10-24T00:38:57.777Z,10.21
2017-10-24T00:41:26.919Z,10.25
2017-10-24T00:43:55.541Z,10.30
2017-10-24T00:46:24.319Z,10.30
2017-10-24T00:48:52.928Z,10.44
2017-10-24T00:51:21.479Z,10.45
2017-10-24T00:53:50.240Z,10.41
2017-10-24T00:56:18.976Z,10.31
2017-10-24T00:58:47.593Z,10.29
2017-10-24T01:01:16.183Z,10.22
2017-10-24T01:03:44.974Z,10.15
2017-10-24T01:06:13.682Z,10.03
2017-10-24T01:08:42.731Z,10.04
2017-10-24T01:11:11.438Z,10.06
2017-10-24T01:13:40.127Z,10.04
2017-10-24T01:16:08.672Z,9.92
2017-10-24T01:18:37.373Z,9.92
2017-10-24T01:21:06.131Z,9.90
2017-10-24T01:23:34.822Z,9.81
2017-10-24T01:26:03.375Z,9.87
2017-10-24T01:28:32.057Z,9.92
2017-10-24T01:31:00.596Z,9.94
2017-10-24T01:33:29.227Z,10.03
2017-10-24T01:35:57.870Z,10.05
2017-10-24T01:38:26.644Z,10.03
2017-10-24T01:40:55.162Z,10.06
2017-10-24T01:43:23.818Z,9.96
2017-10-24T01:45:52.539Z,10.04
2017-10-24T01:48:21.256Z,10.06
2017-10-24T01:50:49.872Z,9.94
2017-10-24T01:53:18.495Z,9.97
2017-10-24T01:55:47.087Z,9.94
2017-10-24T01:58:15.753Z,10.01
2017-10-24T02:00:44.339Z,10.06
2017-10-24T02:03:13.020Z,9.99
2017-10-24T02:05:41.762Z,10.03
2017-10-24T02:08:10.452Z,10.51
2017-10-24T02:10:39.173Z,10.57
2017-10-24T02:13:07.752Z,10.58
2017-10-24T02:15:36.434Z,10.52
2017-10-24T02:18:04.940Z,10.68
2017-10-24T02:20:33.291Z,10.66
2017-10-24T02:23:01.680Z,10.65
2017-10-24T02:25:30.036Z,10.58
2017-10-24T02:27:58.392Z,10.68
2017-10-24T02:30:26.753Z,10.67
2017-10-24T02:32:55.112Z,10.71
2017-10-24T02:35:23.476Z,10.73
2017-10-24T02:37:51.981Z,10.62
2017-10-24T02:40:20.330Z,10.65
2017-10-24T02:42:48.710Z,10.74
2017-10-24T02:45:17.069Z,10.52
2017-10-24T02:47:45.476Z,10.42
2017-10-24T02:50:13.829Z,10.38
2017-10-24T02:52:42.192Z,10.43
2017-10-24T02:55:10.544Z,10.75
2017-10-24T02:57:38.904Z,10.74
2017-10-24T03:00:07.302Z,10.69
2017-10-24T03:02:35.657Z,10.71
2017-10-24T03:05:04.137Z,10.89
2017-10-24T03:07:32.491Z,10.86
2017-10-24T03:10:00.868Z,10.82
2017-10-24T03:12:29.219Z,10.72
2017-10-24T03:14:57.578Z,10.75
2017-10-24T03:17:25.955Z,10.85
2017-10-24T03:19:54.298Z,10.92
2017-10-24T03:22:22.679Z,10.83
2017-10-24T03:24:51.053Z,10.90
2017-10-24T03:27:19.423Z,10.96
2017-10-24T03:29:47.771Z,10.90
2017-10-24T03:32:16.120Z,10.90
2017-10-24T03:34:44.465Z,10.52
2017-10-24T03:37:12.860Z,10.41
2017-10-24T03:39:41.212Z,10.48
2017-10-24T03:42:09.619Z,10.53
2017-10-24T03:44:37.966Z,10.59
2017-10-24T03:47:06.320Z,10.81
2017-10-24T03:49:34.803Z,10.96
2017-10-24T03:52:03.175Z,10.69
2017-10-24T03:54:31.535Z,10.54
2017-10-24T03:56:59.900Z,10.55
2017-10-24T03:59:28.251Z,10.65
2017-10-24T04:01:56.631Z,10.57
2017-10-24T04:04:24.974Z,10.67
2017-10-24T04:06:53.323Z,10.67
2017-10-24T04:09:21.669Z,10.56
2017-10-24T04:11:50.020Z,10.66
2017-10-24T04:14:18.390Z,10.66
2017-10-24T04:16:46.736Z,10.70
2017-10-24T04:19:15.087Z,10.67
2017-10-24T04:21:43.437Z,10.58
2017-10-24T04:24:11.792Z,10.53
2017-10-24T04:26:40.206Z,10.55
2017-10-24T04:29:08.560Z,10.71
2017-10-24T04:31:36.939Z,10.60
2017-10-24T04:34:05.301Z,10.53
2017-10-24T04:36:33.652Z,10.76
2017-10-24T04:39:02.017Z,10.71
2017-10-24T04:41:30.368Z,10.68
2017-10-24T04:43:58.858Z,10.64
2017-10-24T04:46:27.240Z,10.58
2017-10-24T04:48:55.586Z,10.59
2017-10-24T04:51:23.935Z,10.62
2017-10-24T04:53:52.314Z,10.57
2017-10-24T04:56:20.799Z,10.54
2017-10-24T04:58:49.143Z,10.59
2017-10-24T05:01:17.493Z,10.56
2017-10-24T05:03:45.868Z,10.61
2017-10-24T05:06:14.221Z,10.59
2017-10-24T05:08:42.721Z,10.56
2017-10-24T05:11:11.097Z,10.63
2017-10-24T05:13:39.454Z,10.51
2017-10-24T05:16:07.799Z,10.57
2017-10-24T05:18:36.584Z,10.81
2017-10-24T05:21:04.935Z,10.79
2017-10-24T05:23:33.313Z,10.98
2017-10-24T05:26:01.666Z,10.99
2017-10-24T05:28:30.012Z,10.74
2017-10-24T05:30:58.352Z,10.71
2017-10-24T05:33:26.744Z,10.55
2017-10-24T05:35:55.104Z,10.67
2017-10-24T05:38:23.447Z,10.78
2017-10-24T05:40:51.795Z,10.85
2017-10-24T05:43:20.139Z,11.03
2017-10-24T05:45:48.514Z,11.12
2017-10-24T05:48:16.887Z,11.20
2017-10-24T05:50:45.244Z,11.05
2017-10-24T05:53:13.579Z,10.93
2017-10-24T05:55:41.932Z,10.86
2017-10-24T05:58:10.383Z,10.87
2017-10-24T06:00:38.737Z,10.92
2017-10-24T06:03:07.087Z,11.19
2017-10-24T06:05:35.436Z,11.10
2017-10-24T06:08:03.845Z,11.02
2017-10-24T06:10:32.202Z,10.97
2017-10-24T06:13:00.568Z,11.15
2017-10-24T06:15:28.913Z,11.09
2017-10-24T06:17:57.384Z,11.10
2017-10-24T06:20:25.903Z,11.17
2017-10-24T06:22:54.280Z,11.10
2017-10-24T06:25:22.674Z,11.09
2017-10-24T06:27:51.025Z,11.12
2017-10-24T06:30:19.404Z,11.17
2017-10-24T06:32:47.749Z,11.26
2017-10-24T06:35:16.109Z,11.22
2017-10-24T06:37:44.463Z,11.28
2017-10-24T06:40:12.811Z,11.32
2017-10-24T06:42:41.224Z,11.43
2017-10-24T06:45:09.712Z,11.38
2017-10-24T06:47:38.095Z,11.50
2017-10-24T06:50:06.431Z,11.39
2017-10-24T06:52:34.788Z,11.36
2017-10-24T06:55:03.157Z,11.29
2017-10-24T06:57:31.506Z,11.34
2017-10-24T06:59:59.881Z,11.47
2017-10-24T07:02:28.234Z,11.46
2017-10-24T07:04:56.599Z,11.54
2017-10-24T07:07:24.957Z,11.43
2017-10-24T07:09:53.303Z,11.56
2017-10-24T07:12:21.695Z,11.84
2017-10-24T07:14:50.060Z,11.99
2017-10-24T07:17:18.404Z,11.82
2017-10-24T07:19:46.794Z,11.93
2017-10-24T07:22:15.132Z,12.01
2017-10-24T07:24:43.517Z,12.16
2017-10-24T07:27:11.864Z,12.16
2017-10-24T07:29:40.220Z,12.13
2017-10-24T07:32:08.576Z,12.16
2017-10-24T07:34:36.923Z,12.16
2017-10-24T07:37:05.280Z,12.22
2017-10-24T07:39:33.716Z,12.13
2017-10-24T07:42:02.076Z,12.40
2017-10-24T07:44:30.425Z,12.59
2017-10-24T07:46:58.766Z,12.74
2017-10-24T07:49:27.115Z,12.91
2017-10-24T07:51:55.462Z,12.80
2017-10-24T07:54:23.943Z,12.83
2017-10-24T07:56:52.289Z,12.83
2017-10-24T07:59:20.644Z,12.92
2017-10-24T08:01:49.034Z,12.97
2017-10-24T08:04:17.388Z,13.04
2017-10-24T08:06:45.731Z,13.09
2017-10-24T08:09:14.076Z,13.14
2017-10-24T08:11:42.552Z,13.32
2017-10-24T08:14:10.896Z,13.37
2017-10-24T08:16:39.247Z,13.44
2017-10-24T08:19:07.595Z,13.63
2017-10-24T08:21:35.955Z,13.60
2017-10-24T08:24:04.349Z,13.82
2017-10-24T08:26:32.691Z,13.82
2017-10-24T08:29:01.085Z,13.84
2017-10-24T08:31:29.435Z,13.71
2017-10-24T08:33:57.773Z,13.64
2017-10-24T08:36:26.147Z,13.30
2017-10-24T08:38:54.496Z,13.38
2017-10-24T08:41:22.838Z,13.38
2017-10-24T08:43:51.187Z,13.30
2017-10-24T08:46:19.540Z,13.38
2017-10-24T08:48:47.939Z,13.44
2017-10-24T08:51:16.349Z,13.22
2017-10-24T08:53:44.704Z,13.15
2017-10-24T08:56:13.048Z,13.41
2017-10-24T08:58:41.400Z,13.38
2017-10-24T09:01:12.659Z,13.57
2017-10-24T09:03:41.000Z,13.72
2017-10-24T09:06:10.908Z,13.65
2017-10-24T09:08:49.611Z,13.69
2017-10-24T09:14:19.838Z,13.94
2017-10-24T09:16:48.954Z,13.96
2017-10-24T09:22:34.066Z,13.75
2017-10-24T09:25:02.402Z,13.87
2017-10-24T09:27:30.748Z,14.07
2017-10-24T09:29:59.108Z,14.66
2017-10-24T09:32:32.899Z,15.00
2017-10-24T09:35:01.247Z,15.19
2017-10-24T09:37:29.592Z,15.21
2017-10-24T09:39:57.941Z,15.17
2017-10-24T09:42:26.291Z,15.19
2017-10-24T09:44:57.658Z,15.56
2017-10-24T09:47:26.055Z,16.21
2017-10-24T09:49:56.934Z,16.66
2017-10-24T09:52:25.276Z,16.80
2017-10-24T09:54:53.655Z,17.17
2017-10-24T09:57:22.012Z,17.09
2017-10-24T09:59:50.410Z,16.24
2017-10-24T10:02:18.836Z,16.48
2017-10-24T10:04:47.682Z,16.37
2017-10-24T10:07:16.549Z,16.36
2017-10-24T10:09:44.908Z,16.49
2017-10-24T10:12:13.248Z,16.37
2017-10-24T10:14:41.596Z,16.02
2017-10-24T10:17:10.114Z,16.04
2017-10-24T10:19:39.479Z,16.08
2017-10-24T10:22:10.448Z,15.81
2017-10-24T10:24:39.235Z,16.09
2017-10-24T10:27:07.578Z,15.93
2017-10-24T10:29:35.906Z,15.96
2017-10-24T10:32:04.265Z,15.93
2017-10-24T10:34:32.632Z,16.16
2017-10-24T10:37:01.020Z,16.35
2017-10-24T10:39:29.403Z,16.20
2017-10-24T10:41:57.753Z,16.24
2017-10-24T10:44:26.082Z,16.01
2017-10-24T10:46:54.447Z,16.23
2017-10-24T10:49:23.324Z,15.97
2017-10-24T10:51:51.669Z,15.59
2017-10-24T10:54:20.266Z,15.58
2017-10-24T10:56:48.608Z,15.86
2017-10-24T10:59:17.023Z,15.88
2017-10-24T11:01:45.382Z,15.87
2017-10-24T11:04:13.735Z,15.74
2017-10-24T11:06:42.104Z,15.93
2017-10-24T11:09:10.479Z,16.03
2017-10-24T11:11:38.846Z,16.02
2017-10-24T11:14:07.214Z,15.96
2017-10-24T11:16:35.563Z,15.58
2017-10-24T11:19:03.915Z,15.16
2017-10-24T11:21:32.259Z,15.13
2017-10-24T11:24:00.652Z,15.11
2017-10-24T11:26:29.004Z,15.48
2017-10-24T11:28:57.348Z,15.43
2017-10-24T11:31:25.692Z,15.16
2017-10-24T11:33:54.032Z,15.32
2017-10-24T11:36:22.414Z,15.74
2017-10-24T11:38:50.767Z,16.15
2017-10-24T11:41:19.103Z,16.61
2017-10-24T11:43:47.657Z,16.66
2017-10-24T11:46:16.008Z,16.56
2017-10-24T11:48:44.355Z,16.54
2017-10-24T11:51:12.692Z,17.33
2017-10-24T11:53:41.042Z,17.17
2017-10-24T11:56:09.407Z,17.26
2017-10-24T11:58:37.788Z,16.57
2017-10-24T12:01:06.160Z,16.46
2017-10-24T12:03:34.502Z,15.99
2017-10-24T12:06:02.832Z,15.82
2017-10-24T12:08:31.378Z,15.61
2017-10-24T12:10:59.821Z,15.57
2017-10-24T12:13:28.180Z,15.65
2017-10-24T12:15:56.534Z,15.26
2017-10-24T12:18:24.869Z,15.14
2017-10-24T12:20:53.203Z,15.14
2017-10-24T12:23:21.537Z,15.07
2017-10-24T12:25:50.069Z,15.06
2017-10-24T12:28:18.399Z,14.68
2017-10-24T12:30:46.749Z,14.45
2017-10-24T12:33:15.089Z,14.41
2017-10-24T12:35:43.464Z,14.24
2017-10-24T12:38:11.803Z,14.00
2017-10-24T12:40:40.199Z,14.23
2017-10-24T12:43:08.557Z,14.13
2017-10-24T12:45:37.087Z,14.09
2017-10-24T12:48:05.460Z,14.05
2017-10-24T12:50:34.143Z,14.07
2017-10-24T12:53:02.921Z,14.11
2017-10-24T12:55:31.274Z,14.53
2017-10-24T12:58:02.092Z,14.64
2017-10-24T13:00:30.431Z,14.78
2017-10-24T13:02:58.766Z,14.80
2017-10-24T13:05:27.109Z,14.68
2017-10-24T13:07:55.464Z,14.75
2017-10-24T13:10:23.836Z,14.64
2017-10-24T13:12:52.177Z,14.77
2017-10-24T13:15:20.544Z,14.90
2017-10-24T13:17:48.912Z,14.87
2017-10-24T13:20:17.288Z,14.72
2017-10-24T13:22:45.645Z,14.76
2017-10-24T13:25:13.987Z,14.68
2017-10-24T13:27:42.417Z,14.71
2017-10-24T13:30:10.757Z,14.62
2017-10-24T13:32:39.536Z,14.56
2017-10-24T13:35:07.889Z,14.70
2017-10-24T13:37:36.285Z,14.42
2017-10-24T13:40:04.685Z,14.43
2017-10-24T13:42:33.063Z,14.36
2017-10-24T13:45:01.808Z,14.28
2017-10-24T13:47:30.155Z,14.20
2017-10-24T13:49:58.636Z,14.36
2017-10-24T13:52:26.987Z,14.26
2017-10-24T13:54:55.332Z,14.16
2017-10-24T13:57:23.712Z,14.26
2017-10-24T13:59:52.050Z,14.29
2017-10-24T14:02:20.429Z,14.41
2017-10-24T14:07:57.311Z,14.19
2017-10-24T14:10:31.130Z,14.29
2017-10-24T14:12:59.481Z,14.37
2017-10-24T14:15:27.844Z,14.37
2017-10-24T14:17:56.225Z,14.32
2017-10-24T14:20:24.559Z,14.36
2017-10-24T14:22:52.927Z,14.53
2017-10-24T14:25:21.274Z,14.42
2017-10-24T14:27:49.631Z,14.38
2017-10-24T14:30:18.005Z,14.35
2017-10-24T14:32:46.349Z,14.37
2017-10-24T14:35:15.932Z,14.46
2017-10-24T14:37:44.543Z,14.44
2017-10-24T14:40:12.959Z,14.68
2017-10-24T14:42:41.352Z,14.79
2017-10-24T14:45:09.692Z,14.53
2017-10-24T14:47:38.080Z,14.39
2017-10-24T14:50:06.438Z,14.41
2017-10-24T14:52:34.780Z,14.46
2017-10-24T14:55:03.353Z,14.64
2017-10-24T14:57:32.043Z,14.55
2017-10-24T15:00:00.440Z,14.51
2017-10-24T15:02:28.776Z,14.58
2017-10-24T15:04:57.119Z,14.54
2017-10-24T15:07:25.459Z,14.45
2017-10-24T15:09:53.812Z,14.38
2017-10-24T15:12:22.179Z,14.35
2017-10-24T15:14:50.541Z,14.44
2017-10-24T15:17:18.891Z,14.18
2017-10-24T15:19:47.264Z,14.04
2017-10-24T15:22:15.616Z,14.04
2017-10-24T15:24:43.963Z,14.07
2017-10-24T15:27:12.309Z,14.00
2017-10-24T15:29:40.673Z,14.06
2017-10-24T15:32:09.177Z,14.06
2017-10-24T15:34:37.545Z,13.94
2017-10-24T15:37:05.915Z,13.76
2017-10-24T15:39:34.267Z,13.95
2017-10-24T15:42:10.291Z,13.95
2017-10-24T15:44:38.692Z,13.80
2017-10-24T15:47:07.062Z,13.80
2017-10-24T15:49:35.428Z,13.78
2017-10-24T15:52:03.990Z,13.82
2017-10-24T15:54:32.419Z,13.82
2017-10-24T15:57:00.753Z,13.74
2017-10-24T15:59:29.142Z,13.85
2017-10-24T16:01:57.488Z,13.68
2017-10-24T16:04:25.835Z,13.53
2017-10-24T16:06:54.198Z,13.59
2017-10-24T16:09:22.547Z,13.61
2017-10-24T16:11:50.892Z,13.68
2017-10-24T16:14:19.234Z,13.63
2017-10-24T16:16:47.569Z,13.51
2017-10-24T16:19:15.908Z,13.50
2017-10-24T16:21:44.288Z,13.55
2017-10-24T16:24:12.634Z,13.48
2017-10-24T16:26:40.987Z,13.40
2017-10-24T16:29:09.326Z,13.43
2017-10-24T16:31:37.677Z,13.46
2017-10-24T16:34:06.036Z,13.46
2017-10-24T16:36:34.466Z,13.57
2017-10-24T16:39:03.211Z,13.52
2017-10-24T16:41:32.470Z,13.65
2017-10-24T16:44:00.804Z,13.63
2017-10-24T16:46:29.197Z,13.72
2017-10-24T16:48:57.559Z,13.60
2017-10-24T16:51:25.899Z,13.67
2017-10-24T16:53:54.250Z,13.63
2017-10-24T16:56:22.600Z,13.69
2017-10-24T16:58:54.499Z,13.74
2017-10-24T17:01:23.671Z,13.62
2017-10-24T17:03:52.026Z,13.56
2017-10-24T17:06:20.386Z,13.55
2017-10-24T17:08:48.739Z,13.70
2017-10-24T17:11:17.084Z,13.57
2017-10-24T17:13:45.457Z,13.52
2017-10-24T17:16:13.804Z,13.50
2017-10-24T17:18:42.163Z,13.56
2017-10-24T17:21:10.602Z,13.59
2017-10-24T17:23:38.964Z,13.60
2017-10-24T17:26:07.324Z,13.55
2017-10-24T17:28:35.679Z,13.58
2017-10-24T17:31:04.047Z,13.65
2017-10-24T17:33:32.412Z,13.69
2017-10-24T17:36:00.760Z,13.68
2017-10-24T17:38:29.102Z,13.68
2017-10-24T17:40:57.454Z,13.70
2017-10-24T17:43:25.818Z,13.73
2017-10-24T17:45:54.183Z,13.78
2017-10-24T17:48:22.547Z,13.65
2017-10-24T17:50:50.887Z,13.58
2017-10-24T17:53:19.253Z,13.75
2017-10-24T17:55:47.590Z,13.60
2017-10-24T17:58:15.930Z,13.56
2017-10-24T18:00:44.275Z,13.74
2017-10-24T18:03:12.632Z,13.63
2017-10-24T18:05:41.016Z,13.59
2017-10-24T18:08:09.366Z,13.61
2017-10-24T18:10:39.232Z,13.58
2017-10-24T18:13:08.047Z,13.63
2017-10-24T18:15:36.402Z,13.53
2017-10-24T18:18:04.750Z,13.58
2017-10-24T18:20:33.115Z,13.63
2017-10-24T18:23:01.472Z,13.65
2017-10-24T18:25:29.840Z,13.66
2017-10-24T18:27:58.235Z,13.53
2017-10-24T18:30:26.605Z,13.65
2017-10-24T18:32:54.964Z,13.47
2017-10-24T18:35:23.411Z,13.55
2017-10-24T18:37:54.925Z,13.45
2017-10-24T18:40:23.271Z,13.60
2017-10-24T18:42:51.619Z,13.55
2017-10-24T18:45:19.979Z,13.56
2017-10-24T18:47:48.319Z,13.56
2017-10-24T18:50:16.674Z,13.57
2017-10-24T18:52:45.051Z,13.69
2017-10-24T18:55:13.394Z,13.67
2017-10-24T18:57:41.744Z,13.60
2017-10-24T19:00:10.095Z,13.60
2017-10-24T19:02:38.435Z,13.58
2017-10-24T19:05:06.918Z,13.60
2017-10-24T19:07:35.256Z,13.62
2017-10-24T19:10:03.605Z,13.64
2017-10-24T19:12:31.952Z,13.71
2017-10-24T19:15:00.296Z,13.67
2017-10-24T19:17:28.649Z,13.72
2017-10-24T19:19:57.079Z,13.68
2017-10-24T19:22:25.596Z,13.68
2017-10-24T19:24:53.953Z,13.72
2017-10-24T19:27:22.416Z,13.73
2017-10-24T19:29:50.882Z,13.76
2017-10-24T19:32:20.267Z,13.79
2017-10-24T19:34:48.742Z,13.77
2017-10-24T19:37:17.146Z,13.86
2017-10-24T19:39:45.554Z,13.72
2017-10-24T19:42:13.962Z,13.84
2017-10-24T19:44:42.442Z,13.84
2017-10-24T19:47:10.835Z,13.80
2017-10-24T19:49:39.203Z,13.90
2017-10-24T19:52:07.588Z,13.87
2017-10-24T19:54:36.046Z,13.89
2017-10-24T19:57:04.492Z,13.96
2017-10-24T19:59:32.880Z,13.88
2017-10-24T20:02:01.304Z,13.96
2017-10-24T20:04:29.767Z,13.90
2017-10-24T20:06:58.120Z,13.93
2017-10-24T20:09:26.511Z,13.88
2017-10-24T20:11:55.014Z,13.86
2017-10-24T20:14:23.530Z,13.87
2017-10-24T20:16:51.953Z,13.96
2017-10-24T20:19:21.358Z,13.93
2017-10-24T20:21:49.767Z,13.85
2017-10-24T20:24:19.179Z,13.88
2017-10-24T20:26:47.644Z,13.85
2017-10-24T20:29:15.988Z,13.91
2017-10-24T20:31:44.390Z,13.93
2017-10-24T20:34:12.887Z,13.91
2017-10-24T20:36:44.948Z,14.06
2017-10-24T20:39:13.426Z,14.05
2017-10-24T20:41:41.812Z,14.06
2017-10-24T20:44:10.252Z,14.07
2017-10-24T20:46:38.673Z,14.00
2017-10-24T20:49:07.193Z,14.03
2017-10-24T20:51:35.539Z,14.02
2017-10-24T20:54:03.998Z,13.99
2017-10-24T20:56:32.672Z,13.86
2017-10-24T20:59:01.107Z,13.95
2017-10-24T21:01:29.443Z,13.95
2017-10-24T21:03:57.789Z,13.89
2017-10-24T21:06:26.123Z,13.93
2017-10-24T21:08:54.455Z,13.89
2017-10-24T21:11:22.799Z,13.91
2017-10-24T21:13:51.148Z,13.87
2017-10-24T21:16:19.492Z,13.86
2017-10-24T21:18:47.869Z,13.87
2017-10-24T21:21:16.196Z,13.87
2017-10-24T21:23:44.535Z,13.94
2017-10-24T21:26:12.889Z,13.93
2017-10-24T21:28:41.283Z,13.89
2017-10-24T21:31:09.628Z,13.93
2017-10-24T21:33:37.975Z,13.99
2017-10-24T21:36:06.314Z,13.95
2017-10-24T21:38:34.658Z,13.99
2017-10-24T21:41:03.027Z,13.94
2017-10-24T21:43:31.380Z,13.99
2017-10-24T21:45:59.726Z,14.05
2017-10-24T21:48:28.118Z,14.05
2017-10-24T21:50:56.459Z,14.07
2017-10-24T21:53:24.795Z,14.12
2017-10-24T21:55:53.145Z,14.01
2017-10-24T21:58:21.494Z,14.01
2017-10-24T22:00:51.751Z,14.04
2017-10-24T22:03:20.117Z,13.98
2017-10-24T22:05:48.463Z,14.02
2017-10-24T22:08:16.811Z,14.06
2017-10-24T22:10:45.150Z,14.09
2017-10-24T22:13:13.500Z,14.11
2017-10-24T22:15:41.842Z,14.09
2017-10-24T22:18:10.178Z,14.25
2017-10-24T22:20:38.537Z,14.15
2017-10-24T22:23:06.887Z,14.22
2017-10-24T22:25:35.240Z,14.19
2017-10-24T22:28:03.584Z,14.16
2017-10-24T22:30:31.959Z,14.07
2017-10-24T22:33:00.300Z,14.09
2017-10-24T22:35:28.648Z,14.20
2017-10-24T22:37:56.991Z,14.17
2017-10-24T22:40:25.338Z,14.08
2017-10-24T22:42:53.687Z,14.13
2017-10-24T22:45:22.071Z,14.04
2017-10-24T22:47:50.422Z,14.13
2017-10-24T22:50:18.767Z,14.25
2017-10-24T22:52:47.165Z,14.13
2017-10-24T22:55:15.507Z,14.08
2017-10-24T22:57:43.853Z,14.08
2017-10-24T23:00:12.230Z,14.10
2017-10-24T23:02:40.566Z,14.06
2017-10-24T23:05:08.951Z,14.21
2017-10-24T23:07:37.293Z,14.18
2017-10-24T23:10:05.664Z,14.34
2017-10-24T23:12:34.050Z,14.04
2017-10-24T23:15:02.396Z,13.99
2017-10-24T23:17:30.768Z,14.02
2017-10-24T23:19:59.130Z,13.90
2017-10-24T23:22:27.500Z,13.91
2017-10-24T23:24:55.839Z,13.87
2017-10-24T23:27:24.185Z,13.92
2017-10-24T23:29:52.563Z,13.82
2017-10-24T23:32:20.899Z,13.85
2017-10-24T23:34:49.272Z,13.89
2017-10-24T23:37:17.645Z,13.87
2017-10-24T23:39:45.991Z,13.90
2017-10-24T23:42:14.374Z,14.01
2017-10-24T23:44:42.742Z,14.05
2017-10-24T23:47:11.115Z,13.98
2017-10-24T23:49:39.491Z,14.00
2017-10-24T23:52:07.840Z,14.04
2017-10-24T23:54:36.186Z,14.01
2017-10-24T23:57:04.559Z,14.00
2017-10-24T23:59:32.907Z,14.01
